sensor_id;sensor_type;location;lat;lon;timestamp;temperature;humidity
9271;DHT22;4673;53.458;9.940;2022-08-21T00:01:14;13.20;90.70
9271;DHT22;4673;53.458;9.940;2022-08-21T00:03:41;13.20;90.90
9271;DHT22;4673;53.458;9.940;2022-08-21T00:06:07;13.20;90.90
9271;DHT22;4673;53.458;9.940;2022-08-21T00:08:33;13.20;91.00
9271;DHT22;4673;53.458;9.940;2022-08-21T00:10:59;13.20;91.00
9271;DHT22;4673;53.458;9.940;2022-08-21T00:13:25;13.20;91.10
9271;DHT22;4673;53.458;9.940;2022-08-21T00:15:50;13.20;91.10
9271;DHT22;4673;53.458;9.940;2022-08-21T00:18:17;13.20;91.00
9271;DHT22;4673;53.458;9.940;2022-08-21T00:20:44;13.10;90.90
9271;DHT22;4673;53.458;9.940;2022-08-21T00:23:11;13.10;90.90
9271;DHT22;4673;53.458;9.940;2022-08-21T00:25:37;13.00;90.90
9271;DHT22;4673;53.458;9.940;2022-08-21T00:28:03;13.00;91.00
9271;DHT22;4673;53.458;9.940;2022-08-21T00:30:30;13.00;91.10
9271;DHT22;4673;53.458;9.940;2022-08-21T00:32:57;12.90;91.30
9271;DHT22;4673;53.458;9.940;2022-08-21T00:35:30;13.00;91.40
9271;DHT22;4673;53.458;9.940;2022-08-21T00:37:56;13.00;91.50
9271;DHT22;4673;53.458;9.940;2022-08-21T00:40:27;12.90;91.50
9271;DHT22;4673;53.458;9.940;2022-08-21T00:42:53;12.90;91.60
9271;DHT22;4673;53.458;9.940;2022-08-21T00:45:21;13.00;91.90
9271;DHT22;4673;53.458;9.940;2022-08-21T00:47:46;12.90;91.90
9271;DHT22;4673;53.458;9.940;2022-08-21T00:50:12;12.90;91.90
9271;DHT22;4673;53.458;9.940;2022-08-21T00:52:39;12.90;91.90
9271;DHT22;4673;53.458;9.940;2022-08-21T00:55:08;12.90;92.00
9271;DHT22;4673;53.458;9.940;2022-08-21T00:57:42;12.90;92.10
9271;DHT22;4673;53.458;9.940;2022-08-21T01:00:14;12.90;92.00
9271;DHT22;4673;53.458;9.940;2022-08-21T01:02:41;12.90;91.90
9271;DHT22;4673;53.458;9.940;2022-08-21T01:05:07;12.90;92.00
9271;DHT22;4673;53.458;9.940;2022-08-21T01:07:33;12.80;91.90
9271;DHT22;4673;53.458;9.940;2022-08-21T01:09:58;12.80;92.00
9271;DHT22;4673;53.458;9.940;2022-08-21T01:12:25;12.80;92.20
9271;DHT22;4673;53.458;9.940;2022-08-21T01:14:51;12.80;92.20
9271;DHT22;4673;53.458;9.940;2022-08-21T01:17:18;12.80;92.10
9271;DHT22;4673;53.458;9.940;2022-08-21T01:19:44;12.80;92.10
9271;DHT22;4673;53.458;9.940;2022-08-21T01:22:10;12.80;92.10
9271;DHT22;4673;53.458;9.940;2022-08-21T01:24:36;12.70;92.00
9271;DHT22;4673;53.458;9.940;2022-08-21T01:27:02;12.70;92.10
9271;DHT22;4673;53.458;9.940;2022-08-21T01:32:19;12.70;92.20
9271;DHT22;4673;53.458;9.940;2022-08-21T01:34:47;12.70;92.30
9271;DHT22;4673;53.458;9.940;2022-08-21T01:37:14;12.70;92.40
9271;DHT22;4673;53.458;9.940;2022-08-21T01:39:41;12.70;92.40
9271;DHT22;4673;53.458;9.940;2022-08-21T01:42:07;12.60;92.30
9271;DHT22;4673;53.458;9.940;2022-08-21T01:44:33;12.70;92.40
9271;DHT22;4673;53.458;9.940;2022-08-21T01:47:01;12.60;92.40
9271;DHT22;4673;53.458;9.940;2022-08-21T01:49:28;12.70;92.40
9271;DHT22;4673;53.458;9.940;2022-08-21T01:51:53;12.60;92.40
9271;DHT22;4673;53.458;9.940;2022-08-21T01:54:19;12.70;92.60
9271;DHT22;4673;53.458;9.940;2022-08-21T01:56:47;12.70;92.70
9271;DHT22;4673;53.458;9.940;2022-08-21T01:59:14;12.60;92.50
9271;DHT22;4673;53.458;9.940;2022-08-21T02:01:40;12.80;92.60
9271;DHT22;4673;53.458;9.940;2022-08-21T02:04:07;12.60;92.50
9271;DHT22;4673;53.458;9.940;2022-08-21T02:06:33;12.70;92.60
9271;DHT22;4673;53.458;9.940;2022-08-21T02:09:00;12.60;92.50
9271;DHT22;4673;53.458;9.940;2022-08-21T02:11:26;12.60;92.50
9271;DHT22;4673;53.458;9.940;2022-08-21T02:13:52;12.70;92.60
9271;DHT22;4673;53.458;9.940;2022-08-21T02:16:17;12.70;92.50
9271;DHT22;4673;53.458;9.940;2022-08-21T02:18:43;12.70;92.40
9271;DHT22;4673;53.458;9.940;2022-08-21T02:21:09;12.60;92.30
9271;DHT22;4673;53.458;9.940;2022-08-21T02:23:34;12.60;92.20
9271;DHT22;4673;53.458;9.940;2022-08-21T02:26:02;12.70;92.30
9271;DHT22;4673;53.458;9.940;2022-08-21T02:28:28;12.70;92.30
9271;DHT22;4673;53.458;9.940;2022-08-21T02:30:55;12.60;92.20
9271;DHT22;4673;53.458;9.940;2022-08-21T02:33:22;12.70;92.30
9271;DHT22;4673;53.458;9.940;2022-08-21T02:35:48;12.70;92.30
9271;DHT22;4673;53.458;9.940;2022-08-21T02:38:19;12.70;92.30
9271;DHT22;4673;53.458;9.940;2022-08-21T02:40:48;12.60;92.20
9271;DHT22;4673;53.458;9.940;2022-08-21T02:43:15;12.70;92.20
9271;DHT22;4673;53.458;9.940;2022-08-21T02:45:41;12.60;92.10
9271;DHT22;4673;53.458;9.940;2022-08-21T02:48:10;12.60;92.10
9271;DHT22;4673;53.458;9.940;2022-08-21T02:50:40;12.70;92.10
9271;DHT22;4673;53.458;9.940;2022-08-21T02:53:07;12.70;92.10
9271;DHT22;4673;53.458;9.940;2022-08-21T02:55:34;12.70;92.10
9271;DHT22;4673;53.458;9.940;2022-08-21T02:58:05;12.70;92.20
9271;DHT22;4673;53.458;9.940;2022-08-21T03:00:33;12.70;92.10
9271;DHT22;4673;53.458;9.940;2022-08-21T03:02:59;12.70;92.00
9271;DHT22;4673;53.458;9.940;2022-08-21T03:05:27;12.70;92.10
9271;DHT22;4673;53.458;9.940;2022-08-21T03:07:53;12.70;92.10
9271;DHT22;4673;53.458;9.940;2022-08-21T03:10:20;12.70;92.10
9271;DHT22;4673;53.458;9.940;2022-08-21T03:12:47;12.60;91.90
9271;DHT22;4673;53.458;9.940;2022-08-21T03:15:15;12.60;91.90
9271;DHT22;4673;53.458;9.940;2022-08-21T03:17:43;12.60;92.00
9271;DHT22;4673;53.458;9.940;2022-08-21T03:20:09;12.60;92.10
9271;DHT22;4673;53.458;9.940;2022-08-21T03:22:35;12.60;92.00
9271;DHT22;4673;53.458;9.940;2022-08-21T03:25:00;12.60;92.10
9271;DHT22;4673;53.458;9.940;2022-08-21T03:27:27;12.60;92.10
9271;DHT22;4673;53.458;9.940;2022-08-21T03:29:54;12.60;92.10
9271;DHT22;4673;53.458;9.940;2022-08-21T03:32:20;12.60;92.10
9271;DHT22;4673;53.458;9.940;2022-08-21T03:34:46;12.60;92.10
9271;DHT22;4673;53.458;9.940;2022-08-21T03:37:13;12.60;92.20
9271;DHT22;4673;53.458;9.940;2022-08-21T03:39:39;12.60;92.30
9271;DHT22;4673;53.458;9.940;2022-08-21T03:42:05;12.60;92.40
9271;DHT22;4673;53.458;9.940;2022-08-21T03:44:31;12.60;92.40
9271;DHT22;4673;53.458;9.940;2022-08-21T03:46:57;12.60;92.40
9271;DHT22;4673;53.458;9.940;2022-08-21T03:49:24;12.60;92.40
9271;DHT22;4673;53.458;9.940;2022-08-21T03:51:49;12.50;92.50
9271;DHT22;4673;53.458;9.940;2022-08-21T03:54:15;12.50;92.50
9271;DHT22;4673;53.458;9.940;2022-08-21T03:56:41;12.50;92.70
9271;DHT22;4673;53.458;9.940;2022-08-21T03:59:07;12.50;92.80
9271;DHT22;4673;53.458;9.940;2022-08-21T04:05:08;12.50;92.80
9271;DHT22;4673;53.458;9.940;2022-08-21T04:07:54;12.40;92.80
9271;DHT22;4673;53.458;9.940;2022-08-21T04:10:26;12.40;92.80
9271;DHT22;4673;53.458;9.940;2022-08-21T04:12:53;12.40;92.80
9271;DHT22;4673;53.458;9.940;2022-08-21T04:15:20;12.40;92.90
9271;DHT22;4673;53.458;9.940;2022-08-21T04:17:45;12.40;93.00
9271;DHT22;4673;53.458;9.940;2022-08-21T04:20:11;12.40;93.00
9271;DHT22;4673;53.458;9.940;2022-08-21T04:22:38;12.40;93.10
9271;DHT22;4673;53.458;9.940;2022-08-21T04:25:04;12.50;93.30
9271;DHT22;4673;53.458;9.940;2022-08-21T04:27:30;12.50;93.30
9271;DHT22;4673;53.458;9.940;2022-08-21T04:29:56;12.50;93.40
9271;DHT22;4673;53.458;9.940;2022-08-21T04:32:23;12.50;93.40
9271;DHT22;4673;53.458;9.940;2022-08-21T04:34:48;12.60;93.40
9271;DHT22;4673;53.458;9.940;2022-08-21T04:37:14;12.60;93.40
9271;DHT22;4673;53.458;9.940;2022-08-21T04:39:41;12.60;93.40
9271;DHT22;4673;53.458;9.940;2022-08-21T04:42:07;12.70;93.60
9271;DHT22;4673;53.458;9.940;2022-08-21T04:44:34;12.70;93.60
9271;DHT22;4673;53.458;9.940;2022-08-21T04:46:59;12.80;93.60
9271;DHT22;4673;53.458;9.940;2022-08-21T04:49:25;12.90;93.70
9271;DHT22;4673;53.458;9.940;2022-08-21T04:51:50;13.00;93.70
9271;DHT22;4673;53.458;9.940;2022-08-21T04:54:19;13.10;93.70
9271;DHT22;4673;53.458;9.940;2022-08-21T04:56:49;13.20;93.70
9271;DHT22;4673;53.458;9.940;2022-08-21T04:59:24;13.40;93.70
9271;DHT22;4673;53.458;9.940;2022-08-21T05:01:52;13.60;93.50
9271;DHT22;4673;53.458;9.940;2022-08-21T05:04:24;13.70;93.30
9271;DHT22;4673;53.458;9.940;2022-08-21T05:06:53;13.80;92.80
9271;DHT22;4673;53.458;9.940;2022-08-21T05:09:20;14.00;92.20
9271;DHT22;4673;53.458;9.940;2022-08-21T05:11:47;14.10;91.80
9271;DHT22;4673;53.458;9.940;2022-08-21T05:14:14;14.20;91.00
9271;DHT22;4673;53.458;9.940;2022-08-21T05:16:40;14.40;90.20
9271;DHT22;4673;53.458;9.940;2022-08-21T05:19:07;14.50;89.50
9271;DHT22;4673;53.458;9.940;2022-08-21T05:21:34;14.50;88.80
9271;DHT22;4673;53.458;9.940;2022-08-21T05:24:00;14.70;88.20
9271;DHT22;4673;53.458;9.940;2022-08-21T05:26:26;14.80;87.70
9271;DHT22;4673;53.458;9.940;2022-08-21T05:28:51;14.90;87.30
9271;DHT22;4673;53.458;9.940;2022-08-21T05:31:17;15.10;87.10
9271;DHT22;4673;53.458;9.940;2022-08-21T05:33:43;15.20;86.40
9271;DHT22;4673;53.458;9.940;2022-08-21T05:36:08;15.30;85.40
9271;DHT22;4673;53.458;9.940;2022-08-21T05:38:34;15.40;84.50
9271;DHT22;4673;53.458;9.940;2022-08-21T05:41:00;15.50;83.70
9271;DHT22;4673;53.458;9.940;2022-08-21T05:43:25;15.70;83.40
9271;DHT22;4673;53.458;9.940;2022-08-21T05:45:51;15.80;83.00
9271;DHT22;4673;53.458;9.940;2022-08-21T05:48:21;15.90;82.50
9271;DHT22;4673;53.458;9.940;2022-08-21T05:50:49;16.00;81.90
9271;DHT22;4673;53.458;9.940;2022-08-21T05:53:16;16.10;81.20
9271;DHT22;4673;53.458;9.940;2022-08-21T05:55:41;16.20;80.40
9271;DHT22;4673;53.458;9.940;2022-08-21T05:58:08;16.40;80.00
9271;DHT22;4673;53.458;9.940;2022-08-21T06:00:33;16.40;79.70
9271;DHT22;4673;53.458;9.940;2022-08-21T06:02:59;16.50;79.50
9271;DHT22;4673;53.458;9.940;2022-08-21T06:05:26;16.50;78.20
9271;DHT22;4673;53.458;9.940;2022-08-21T06:07:51;16.60;78.30
9271;DHT22;4673;53.458;9.940;2022-08-21T06:10:17;16.70;76.80
9271;DHT22;4673;53.458;9.940;2022-08-21T06:12:43;16.80;75.60
9271;DHT22;4673;53.458;9.940;2022-08-21T06:15:10;16.90;74.40
9271;DHT22;4673;53.458;9.940;2022-08-21T06:17:36;16.80;73.80
9271;DHT22;4673;53.458;9.940;2022-08-21T06:20:02;16.70;74.40
9271;DHT22;4673;53.458;9.940;2022-08-21T06:22:28;16.60;75.50
9271;DHT22;4673;53.458;9.940;2022-08-21T06:24:54;16.60;76.10
9271;DHT22;4673;53.458;9.940;2022-08-21T06:27:19;16.80;76.40
9271;DHT22;4673;53.458;9.940;2022-08-21T06:29:45;17.20;75.60
9271;DHT22;4673;53.458;9.940;2022-08-21T06:32:12;17.40;74.40
9271;DHT22;4673;53.458;9.940;2022-08-21T06:34:39;17.80;72.90
9271;DHT22;4673;53.458;9.940;2022-08-21T06:37:05;18.00;70.00
9271;DHT22;4673;53.458;9.940;2022-08-21T06:39:31;18.40;68.00
9271;DHT22;4673;53.458;9.940;2022-08-21T06:41:57;18.60;67.20
9271;DHT22;4673;53.458;9.940;2022-08-21T06:44:23;18.70;66.70
9271;DHT22;4673;53.458;9.940;2022-08-21T06:46:48;18.70;65.90
9271;DHT22;4673;53.458;9.940;2022-08-21T06:49:14;18.80;65.80
9271;DHT22;4673;53.458;9.940;2022-08-21T06:51:41;18.70;65.70
9271;DHT22;4673;53.458;9.940;2022-08-21T06:54:06;18.60;65.70
9271;DHT22;4673;53.458;9.940;2022-08-21T06:56:32;18.70;66.40
9271;DHT22;4673;53.458;9.940;2022-08-21T06:58:58;18.60;66.70
9271;DHT22;4673;53.458;9.940;2022-08-21T07:01:26;18.70;66.60
9271;DHT22;4673;53.458;9.940;2022-08-21T07:03:52;18.80;66.20
9271;DHT22;4673;53.458;9.940;2022-08-21T07:06:18;18.90;65.60
9271;DHT22;4673;53.458;9.940;2022-08-21T07:08:44;18.90;65.10
9271;DHT22;4673;53.458;9.940;2022-08-21T07:11:14;19.00;64.50
9271;DHT22;4673;53.458;9.940;2022-08-21T07:13:42;19.10;65.00
9271;DHT22;4673;53.458;9.940;2022-08-21T07:16:07;19.10;64.60
9271;DHT22;4673;53.458;9.940;2022-08-21T07:18:33;19.00;64.30
9271;DHT22;4673;53.458;9.940;2022-08-21T07:21:01;19.00;63.70
9271;DHT22;4673;53.458;9.940;2022-08-21T07:23:30;19.10;63.00
9271;DHT22;4673;53.458;9.940;2022-08-21T07:25:57;19.20;61.80
9271;DHT22;4673;53.458;9.940;2022-08-21T07:28:24;19.20;60.90
9271;DHT22;4673;53.458;9.940;2022-08-21T07:30:52;19.30;61.40
9271;DHT22;4673;53.458;9.940;2022-08-21T07:33:18;19.30;60.60
9271;DHT22;4673;53.458;9.940;2022-08-21T07:35:44;19.30;59.70
9271;DHT22;4673;53.458;9.940;2022-08-21T07:38:09;19.50;59.80
9271;DHT22;4673;53.458;9.940;2022-08-21T07:40:35;19.50;59.50
9271;DHT22;4673;53.458;9.940;2022-08-21T07:43:00;19.50;58.90
9271;DHT22;4673;53.458;9.940;2022-08-21T07:45:27;19.80;58.10
9271;DHT22;4673;53.458;9.940;2022-08-21T07:47:53;19.80;58.00
9271;DHT22;4673;53.458;9.940;2022-08-21T07:50:19;19.80;58.70
9271;DHT22;4673;53.458;9.940;2022-08-21T07:52:45;19.80;59.20
9271;DHT22;4673;53.458;9.940;2022-08-21T07:55:14;19.90;59.00
9271;DHT22;4673;53.458;9.940;2022-08-21T07:57:41;20.00;58.70
9271;DHT22;4673;53.458;9.940;2022-08-21T08:00:09;20.00;58.50
9271;DHT22;4673;53.458;9.940;2022-08-21T08:02:35;20.10;57.40
9271;DHT22;4673;53.458;9.940;2022-08-21T08:05:03;20.10;58.10
9271;DHT22;4673;53.458;9.940;2022-08-21T08:07:29;20.20;57.70
9271;DHT22;4673;53.458;9.940;2022-08-21T08:09:55;20.30;57.50
9271;DHT22;4673;53.458;9.940;2022-08-21T08:12:21;20.40;58.00
9271;DHT22;4673;53.458;9.940;2022-08-21T08:14:46;20.50;58.20
9271;DHT22;4673;53.458;9.940;2022-08-21T08:17:12;20.60;57.90
9271;DHT22;4673;53.458;9.940;2022-08-21T08:19:39;20.70;57.80
9271;DHT22;4673;53.458;9.940;2022-08-21T08:22:18;20.80;57.90
9271;DHT22;4673;53.458;9.940;2022-08-21T08:24:45;20.90;58.30
9271;DHT22;4673;53.458;9.940;2022-08-21T08:27:10;21.00;58.00
9271;DHT22;4673;53.458;9.940;2022-08-21T08:29:36;21.00;58.00
9271;DHT22;4673;53.458;9.940;2022-08-21T08:32:03;21.00;58.10
9271;DHT22;4673;53.458;9.940;2022-08-21T08:34:29;21.00;58.50
9271;DHT22;4673;53.458;9.940;2022-08-21T08:36:55;21.00;58.80
9271;DHT22;4673;53.458;9.940;2022-08-21T08:39:23;21.00;58.60
9271;DHT22;4673;53.458;9.940;2022-08-21T08:41:49;21.00;58.60
9271;DHT22;4673;53.458;9.940;2022-08-21T08:44:16;21.10;58.20
9271;DHT22;4673;53.458;9.940;2022-08-21T08:46:47;21.10;58.40
9271;DHT22;4673;53.458;9.940;2022-08-21T08:49:24;21.30;57.80
9271;DHT22;4673;53.458;9.940;2022-08-21T08:52:04;21.30;56.90
9271;DHT22;4673;53.458;9.940;2022-08-21T08:54:39;21.40;55.90
9271;DHT22;4673;53.458;9.940;2022-08-21T08:57:16;21.30;56.30
9271;DHT22;4673;53.458;9.940;2022-08-21T08:59:48;21.50;56.40
9271;DHT22;4673;53.458;9.940;2022-08-21T09:02:16;21.50;54.70
9271;DHT22;4673;53.458;9.940;2022-08-21T09:04:44;21.40;54.10
9271;DHT22;4673;53.458;9.940;2022-08-21T09:09:51;21.40;55.10
9271;DHT22;4673;53.458;9.940;2022-08-21T09:15:15;21.70;54.80
9271;DHT22;4673;53.458;9.940;2022-08-21T09:18:09;21.60;55.10
9271;DHT22;4673;53.458;9.940;2022-08-21T09:26:19;22.00;53.70
9271;DHT22;4673;53.458;9.940;2022-08-21T09:28:49;22.10;53.10
9271;DHT22;4673;53.458;9.940;2022-08-21T09:31:26;22.00;52.50
9271;DHT22;4673;53.458;9.940;2022-08-21T09:34:03;22.00;53.30
9271;DHT22;4673;53.458;9.940;2022-08-21T09:36:42;22.00;53.20
9271;DHT22;4673;53.458;9.940;2022-08-21T09:39:10;22.00;52.90
9271;DHT22;4673;53.458;9.940;2022-08-21T09:41:38;22.00;53.10
9271;DHT22;4673;53.458;9.940;2022-08-21T09:44:06;22.10;52.80
9271;DHT22;4673;53.458;9.940;2022-08-21T09:46:31;22.30;52.60
9271;DHT22;4673;53.458;9.940;2022-08-21T09:49:03;22.30;52.00
9271;DHT22;4673;53.458;9.940;2022-08-21T09:56:53;22.80;51.00
9271;DHT22;4673;53.458;9.940;2022-08-21T09:59:38;22.70;49.20
9271;DHT22;4673;53.458;9.940;2022-08-21T10:05:03;23.10;49.80
9271;DHT22;4673;53.458;9.940;2022-08-21T10:07:35;23.20;48.00
9271;DHT22;4673;53.458;9.940;2022-08-21T10:34:32;23.50;42.70
9271;DHT22;4673;53.458;9.940;2022-08-21T10:40:02;23.20;44.20
9271;DHT22;4673;53.458;9.940;2022-08-21T10:42:46;23.00;43.90
9271;DHT22;4673;53.458;9.940;2022-08-21T10:45:42;22.80;45.40
9271;DHT22;4673;53.458;9.940;2022-08-21T10:48:18;22.60;45.50
9271;DHT22;4673;53.458;9.940;2022-08-21T10:51:03;22.80;45.90
9271;DHT22;4673;53.458;9.940;2022-08-21T10:53:55;23.00;41.90
9271;DHT22;4673;53.458;9.940;2022-08-21T10:56:30;23.10;41.50
9271;DHT22;4673;53.458;9.940;2022-08-21T10:59:28;23.20;39.90
9271;DHT22;4673;53.458;9.940;2022-08-21T11:02:01;23.40;40.20
9271;DHT22;4673;53.458;9.940;2022-08-21T11:04:45;23.40;40.20
9271;DHT22;4673;53.458;9.940;2022-08-21T11:07:38;23.50;39.00
9271;DHT22;4673;53.458;9.940;2022-08-21T11:10:37;23.30;38.50
9271;DHT22;4673;53.458;9.940;2022-08-21T11:13:37;23.20;40.00
9271;DHT22;4673;53.458;9.940;2022-08-21T11:18:36;23.30;39.80
9271;DHT22;4673;53.458;9.940;2022-08-21T11:27:42;23.60;38.20
9271;DHT22;4673;53.458;9.940;2022-08-21T11:29:54;23.50;37.60
9271;DHT22;4673;53.458;9.940;2022-08-21T11:51:38;24.20;37.70
9271;DHT22;4673;53.458;9.940;2022-08-21T11:56:51;24.70;33.40
9271;DHT22;4673;53.458;9.940;2022-08-21T11:59:23;25.00;32.50
9271;DHT22;4673;53.458;9.940;2022-08-21T12:01:53;25.10;30.70
9271;DHT22;4673;53.458;9.940;2022-08-21T12:04:31;25.20;30.70
9271;DHT22;4673;53.458;9.940;2022-08-21T12:07:16;25.40;30.70
9271;DHT22;4673;53.458;9.940;2022-08-21T12:09:53;25.50;27.60
9271;DHT22;4673;53.458;9.940;2022-08-21T12:12:27;25.50;29.80
9271;DHT22;4673;53.458;9.940;2022-08-21T12:18:22;25.80;29.00
9271;DHT22;4673;53.458;9.940;2022-08-21T12:21:02;26.00;29.10
9271;DHT22;4673;53.458;9.940;2022-08-21T12:23:43;26.10;28.50
9271;DHT22;4673;53.458;9.940;2022-08-21T12:26:10;26.20;27.70
9271;DHT22;4673;53.458;9.940;2022-08-21T12:28:39;26.30;25.70
9271;DHT22;4673;53.458;9.940;2022-08-21T12:31:26;26.50;24.50
9271;DHT22;4673;53.458;9.940;2022-08-21T12:33:58;26.50;25.50
9271;DHT22;4673;53.458;9.940;2022-08-21T12:36:42;26.40;25.20
9271;DHT22;4673;53.458;9.940;2022-08-21T12:39:15;26.40;25.80
9271;DHT22;4673;53.458;9.940;2022-08-21T12:42:06;26.70;24.50
9271;DHT22;4673;53.458;9.940;2022-08-21T12:44:44;26.90;24.80
9271;DHT22;4673;53.458;9.940;2022-08-21T12:47:43;27.10;24.50
9271;DHT22;4673;53.458;9.940;2022-08-21T12:50:13;27.20;24.30
9271;DHT22;4673;53.458;9.940;2022-08-21T12:52:48;27.20;23.50
9271;DHT22;4673;53.458;9.940;2022-08-21T12:55:28;27.00;24.40
9271;DHT22;4673;53.458;9.940;2022-08-21T12:57:54;26.60;24.10
9271;DHT22;4673;53.458;9.940;2022-08-21T13:00:23;26.40;24.10
9271;DHT22;4673;53.458;9.940;2022-08-21T13:02:50;26.30;24.80
9271;DHT22;4673;53.458;9.940;2022-08-21T13:05:32;26.40;23.20
9271;DHT22;4673;53.458;9.940;2022-08-21T13:08:02;25.90;24.80
9271;DHT22;4673;53.458;9.940;2022-08-21T13:10:31;25.70;26.50
9271;DHT22;4673;53.458;9.940;2022-08-21T13:12:59;25.60;26.30
9271;DHT22;4673;53.458;9.940;2022-08-21T13:15:32;25.60;26.20
9271;DHT22;4673;53.458;9.940;2022-08-21T13:17:58;25.60;26.10
9271;DHT22;4673;53.458;9.940;2022-08-21T13:20:33;25.10;27.20
9271;DHT22;4673;53.458;9.940;2022-08-21T13:23:02;24.80;31.20
9271;DHT22;4673;53.458;9.940;2022-08-21T13:25:35;24.60;29.50
9271;DHT22;4673;53.458;9.940;2022-08-21T13:28:10;24.70;29.70
9271;DHT22;4673;53.458;9.940;2022-08-21T13:30:42;24.70;30.40
9271;DHT22;4673;53.458;9.940;2022-08-21T13:33:09;24.60;31.40
9271;DHT22;4673;53.458;9.940;2022-08-21T13:35:58;24.90;32.40
9271;DHT22;4673;53.458;9.940;2022-08-21T13:38:32;25.00;28.30
9271;DHT22;4673;53.458;9.940;2022-08-21T13:41:05;24.90;29.50
9271;DHT22;4673;53.458;9.940;2022-08-21T13:43:34;24.60;29.00
9271;DHT22;4673;53.458;9.940;2022-08-21T13:46:01;24.40;29.20
9271;DHT22;4673;53.458;9.940;2022-08-21T13:48:30;24.10;30.00
9271;DHT22;4673;53.458;9.940;2022-08-21T13:50:58;23.90;31.40
9271;DHT22;4673;53.458;9.940;2022-08-21T13:53:34;23.80;31.30
9271;DHT22;4673;53.458;9.940;2022-08-21T13:56:02;23.90;34.70
9271;DHT22;4673;53.458;9.940;2022-08-21T13:58:48;24.00;33.20
9271;DHT22;4673;53.458;9.940;2022-08-21T14:01:51;23.90;31.20
9271;DHT22;4673;53.458;9.940;2022-08-21T14:04:26;23.90;33.40
9271;DHT22;4673;53.458;9.940;2022-08-21T14:06:53;23.90;32.80
9271;DHT22;4673;53.458;9.940;2022-08-21T14:11:55;24.00;32.80
9271;DHT22;4673;53.458;9.940;2022-08-21T14:14:31;23.90;31.90
9271;DHT22;4673;53.458;9.940;2022-08-21T14:17:25;24.00;34.20
9271;DHT22;4673;53.458;9.940;2022-08-21T14:19:46;24.10;35.10
9271;DHT22;4673;53.458;9.940;2022-08-21T14:22:43;24.40;33.00
9271;DHT22;4673;53.458;9.940;2022-08-21T14:25:47;24.70;30.50
9271;DHT22;4673;53.458;9.940;2022-08-21T14:30:45;24.90;28.70
9271;DHT22;4673;53.458;9.940;2022-08-21T14:33:18;24.60;30.20
9271;DHT22;4673;53.458;9.940;2022-08-21T14:35:44;24.20;30.80
9271;DHT22;4673;53.458;9.940;2022-08-21T14:38:18;23.90;31.50
9271;DHT22;4673;53.458;9.940;2022-08-21T14:40:47;23.60;32.70
9271;DHT22;4673;53.458;9.940;2022-08-21T14:43:13;23.60;33.40
9271;DHT22;4673;53.458;9.940;2022-08-21T14:45:39;23.60;32.90
9271;DHT22;4673;53.458;9.940;2022-08-21T14:48:07;23.70;33.20
9271;DHT22;4673;53.458;9.940;2022-08-21T14:50:33;23.80;33.20
9271;DHT22;4673;53.458;9.940;2022-08-21T14:52:58;24.00;33.40
9271;DHT22;4673;53.458;9.940;2022-08-21T14:55:25;24.20;33.40
9271;DHT22;4673;53.458;9.940;2022-08-21T14:57:52;24.30;31.30
9271;DHT22;4673;53.458;9.940;2022-08-21T15:00:21;24.30;32.00
9271;DHT22;4673;53.458;9.940;2022-08-21T15:02:51;24.40;31.20
9271;DHT22;4673;53.458;9.940;2022-08-21T15:05:18;24.40;30.40
9271;DHT22;4673;53.458;9.940;2022-08-21T15:07:44;24.50;31.10
9271;DHT22;4673;53.458;9.940;2022-08-21T15:10:11;24.40;29.70
9271;DHT22;4673;53.458;9.940;2022-08-21T15:12:37;24.20;30.80
9271;DHT22;4673;53.458;9.940;2022-08-21T15:15:05;24.10;31.20
9271;DHT22;4673;53.458;9.940;2022-08-21T15:17:31;24.20;30.90
9271;DHT22;4673;53.458;9.940;2022-08-21T15:19:56;24.20;32.00
9271;DHT22;4673;53.458;9.940;2022-08-21T15:22:22;24.20;31.00
9271;DHT22;4673;53.458;9.940;2022-08-21T15:24:48;24.00;31.60
9271;DHT22;4673;53.458;9.940;2022-08-21T15:27:14;24.00;31.50
9271;DHT22;4673;53.458;9.940;2022-08-21T15:29:42;24.10;32.60
9271;DHT22;4673;53.458;9.940;2022-08-21T15:32:24;24.20;31.70
9271;DHT22;4673;53.458;9.940;2022-08-21T15:34:51;24.30;32.00
9271;DHT22;4673;53.458;9.940;2022-08-21T15:37:18;24.20;32.60
9271;DHT22;4673;53.458;9.940;2022-08-21T15:39:43;24.30;33.60
9271;DHT22;4673;53.458;9.940;2022-08-21T15:42:10;24.20;31.70
9271;DHT22;4673;53.458;9.940;2022-08-21T15:44:38;24.30;32.40
9271;DHT22;4673;53.458;9.940;2022-08-21T15:47:04;24.30;30.20
9271;DHT22;4673;53.458;9.940;2022-08-21T15:49:30;24.40;30.00
9271;DHT22;4673;53.458;9.940;2022-08-21T15:51:56;24.30;30.20
9271;DHT22;4673;53.458;9.940;2022-08-21T15:54:21;24.30;30.30
9271;DHT22;4673;53.458;9.940;2022-08-21T15:56:48;24.30;30.90
9271;DHT22;4673;53.458;9.940;2022-08-21T15:59:19;24.40;30.80
9271;DHT22;4673;53.458;9.940;2022-08-21T16:01:48;24.30;31.00
9271;DHT22;4673;53.458;9.940;2022-08-21T16:04:21;24.30;30.60
9271;DHT22;4673;53.458;9.940;2022-08-21T16:06:47;24.10;30.70
9271;DHT22;4673;53.458;9.940;2022-08-21T16:09:14;24.00;31.30
9271;DHT22;4673;53.458;9.940;2022-08-21T16:11:41;23.80;31.80
9271;DHT22;4673;53.458;9.940;2022-08-21T16:14:06;23.70;33.20
9271;DHT22;4673;53.458;9.940;2022-08-21T16:16:34;23.60;34.20
9271;DHT22;4673;53.458;9.940;2022-08-21T16:19:00;23.50;34.40
9271;DHT22;4673;53.458;9.940;2022-08-21T16:21:27;23.60;33.80
9271;DHT22;4673;53.458;9.940;2022-08-21T16:23:53;23.60;34.30
9271;DHT22;4673;53.458;9.940;2022-08-21T16:26:19;23.60;35.00
9271;DHT22;4673;53.458;9.940;2022-08-21T16:28:45;23.60;34.80
9271;DHT22;4673;53.458;9.940;2022-08-21T16:31:13;23.70;34.70
9271;DHT22;4673;53.458;9.940;2022-08-21T16:33:42;23.60;33.70
9271;DHT22;4673;53.458;9.940;2022-08-21T16:36:09;23.50;34.30
9271;DHT22;4673;53.458;9.940;2022-08-21T16:38:36;23.50;35.00
9271;DHT22;4673;53.458;9.940;2022-08-21T16:41:03;23.40;35.50
9271;DHT22;4673;53.458;9.940;2022-08-21T16:43:30;23.30;36.10
9271;DHT22;4673;53.458;9.940;2022-08-21T16:45:56;23.10;36.90
9271;DHT22;4673;53.458;9.940;2022-08-21T16:48:23;23.10;37.20
9271;DHT22;4673;53.458;9.940;2022-08-21T16:50:49;23.10;37.80
9271;DHT22;4673;53.458;9.940;2022-08-21T16:53:15;23.10;36.90
9271;DHT22;4673;53.458;9.940;2022-08-21T16:55:42;23.10;37.20
9271;DHT22;4673;53.458;9.940;2022-08-21T16:58:14;23.00;38.60
9271;DHT22;4673;53.458;9.940;2022-08-21T17:00:41;23.00;38.40
9271;DHT22;4673;53.458;9.940;2022-08-21T17:03:13;23.00;38.60
9271;DHT22;4673;53.458;9.940;2022-08-21T17:05:40;23.00;39.10
9271;DHT22;4673;53.458;9.940;2022-08-21T17:08:06;22.90;39.80
9271;DHT22;4673;53.458;9.940;2022-08-21T17:10:33;22.90;38.90
9271;DHT22;4673;53.458;9.940;2022-08-21T17:12:59;22.90;39.10
9271;DHT22;4673;53.458;9.940;2022-08-21T17:15:36;22.90;38.50
9271;DHT22;4673;53.458;9.940;2022-08-21T17:18:03;22.90;38.50
9271;DHT22;4673;53.458;9.940;2022-08-21T17:20:32;22.80;39.00
9271;DHT22;4673;53.458;9.940;2022-08-21T17:22:58;22.70;39.60
9271;DHT22;4673;53.458;9.940;2022-08-21T17:25:24;22.70;39.50
9271;DHT22;4673;53.458;9.940;2022-08-21T17:27:51;22.60;40.00
9271;DHT22;4673;53.458;9.940;2022-08-21T17:30:18;22.50;40.30
9271;DHT22;4673;53.458;9.940;2022-08-21T17:32:45;22.40;40.90
9271;DHT22;4673;53.458;9.940;2022-08-21T17:35:11;22.30;41.10
9271;DHT22;4673;53.458;9.940;2022-08-21T17:37:37;22.30;41.60
9271;DHT22;4673;53.458;9.940;2022-08-21T17:40:05;22.20;41.60
9271;DHT22;4673;53.458;9.940;2022-08-21T17:42:31;22.10;42.10
9271;DHT22;4673;53.458;9.940;2022-08-21T17:44:58;22.00;42.90
9271;DHT22;4673;53.458;9.940;2022-08-21T17:47:24;22.00;43.10